sensor_id;sensor_type;location;lat;lon;timestamp;temperature;humidity
77803;DHT22;66993;48.256;16.422;2023-04-25T00:00:16;11.4;71.0
77803;DHT22;66993;48.256;16.422;2023-04-25T00:05:16;11.3;71.0
77803;DHT22;66993;48.256;16.422;2023-04-25T00:10:16;11.4;70.0
77803;DHT22;66993;48.256;16.422;2023-04-25T00:15:16;11.4;70.0
77803;DHT22;66993;48.256;16.422;2023-04-25T00:20:16;11.4;70.0
77803;DHT22;66993;48.256;16.422;2023-04-25T00:25:16;11.3;70.0
77803;DHT22;66993;48.256;16.422;2023-04-25T00:30:16;11.3;70.0
77803;DHT22;66993;48.256;16.422;2023-04-25T00:35:16;11.2;70.0
77803;DHT22;66993;48.256;16.422;2023-04-25T00:40:16;11.2;69.0
77803;DHT22;66993;48.256;16.422;2023-04-25T00:45:16;11.2;70.0
77803;DHT22;66993;48.256;16.422;2023-04-25T00:50:16;11.1;70.0
77803;DHT22;66993;48.256;16.422;2023-04-25T00:55:16;11.2;69.0
77803;DHT22;66993;48.256;16.422;2023-04-25T01:00:16;11.1;69.0
77803;DHT22;66993;48.256;16.422;2023-04-25T01:05:16;11.1;69.0
77803;DHT22;66993;48.256;16.422;2023-04-25T01:10:16;11.1;69.0
77803;DHT22;66993;48.256;16.422;2023-04-25T01:15:16;11.2;69.0
77803;DHT22;66993;48.256;16.422;2023-04-25T01:20:16;11.2;69.0
77803;DHT22;66993;48.256;16.422;2023-04-25T01:25:16;11.1;69.0
77803;DHT22;66993;48.256;16.422;2023-04-25T01:30:16;11.0;69.0
77803;DHT22;66993;48.256;16.422;2023-04-25T01:35:16;11.0;69.0
77803;DHT22;66993;48.256;16.422;2023-04-25T01:40:16;11.0;69.0
77803;DHT22;66993;48.256;16.422;2023-04-25T01:45:16;10.9;69.0
77803;DHT22;66993;48.256;16.422;2023-04-25T01:50:16;11.0;69.0
77803;DHT22;66993;48.256;16.422;2023-04-25T01:55:16;11.0;69.0
77803;DHT22;66993;48.256;16.422;2023-04-25T02:00:16;11.0;68.0
77803;DHT22;66993;48.256;16.422;2023-04-25T02:05:16;10.9;69.0
77803;DHT22;66993;48.256;16.422;2023-04-25T02:10:16;10.9;69.0
77803;DHT22;66993;48.256;16.422;2023-04-25T02:15:18;10.9;69.0
77803;DHT22;66993;48.256;16.422;2023-04-25T02:20:16;10.8;69.0
77803;DHT22;66993;48.256;16.422;2023-04-25T02:25:16;10.8;68.0
77803;DHT22;66993;48.256;16.422;2023-04-25T02:30:16;10.8;68.0
77803;DHT22;66993;48.256;16.422;2023-04-25T02:35:16;10.8;69.0
77803;DHT22;66993;48.256;16.422;2023-04-25T02:40:16;10.7;69.0
77803;DHT22;66993;48.256;16.422;2023-04-25T02:45:16;10.7;69.0
77803;DHT22;66993;48.256;16.422;2023-04-25T02:50:16;10.7;68.0
77803;DHT22;66993;48.256;16.422;2023-04-25T02:55:16;10.5;69.0
77803;DHT22;66993;48.256;16.422;2023-04-25T03:00:16;10.6;69.0
77803;DHT22;66993;48.256;16.422;2023-04-25T03:05:16;10.5;69.0
77803;DHT22;66993;48.256;16.422;2023-04-25T03:10:16;10.5;69.0
77803;DHT22;66993;48.256;16.422;2023-04-25T03:15:16;10.5;69.0
77803;DHT22;66993;48.256;16.422;2023-04-25T03:20:16;10.3;70.0
77803;DHT22;66993;48.256;16.422;2023-04-25T03:25:16;10.3;70.0
77803;DHT22;66993;48.256;16.422;2023-04-25T03:30:16;10.4;70.0
77803;DHT22;66993;48.256;16.422;2023-04-25T03:35:16;10.2;70.0
77803;DHT22;66993;48.256;16.422;2023-04-25T03:40:16;10.3;70.0
77803;DHT22;66993;48.256;16.422;2023-04-25T03:45:16;10.2;70.0
77803;DHT22;66993;48.256;16.422;2023-04-25T03:50:16;10.1;70.0
77803;DHT22;66993;48.256;16.422;2023-04-25T03:55:16;10.1;70.0
77803;DHT22;66993;48.256;16.422;2023-04-25T04:00:16;10.1;70.0
77803;DHT22;66993;48.256;16.422;2023-04-25T04:05:16;10.0;70.0
77803;DHT22;66993;48.256;16.422;2023-04-25T04:10:16;10.1;70.0
77803;DHT22;66993;48.256;16.422;2023-04-25T04:15:16;10.0;70.0
77803;DHT22;66993;48.256;16.422;2023-04-25T04:20:16;10.0;70.0
77803;DHT22;66993;48.256;16.422;2023-04-25T04:25:16;9.9;70.0
77803;DHT22;66993;48.256;16.422;2023-04-25T04:30:16;9.8;71.0
77803;DHT22;66993;48.256;16.422;2023-04-25T04:35:16;9.8;70.0
77803;DHT22;66993;48.256;16.422;2023-04-25T04:40:17;9.8;70.0
77803;DHT22;66993;48.256;16.422;2023-04-25T04:45:16;9.6;71.0
77803;DHT22;66993;48.256;16.422;2023-04-25T04:50:16;9.5;72.0
77803;DHT22;66993;48.256;16.422;2023-04-25T04:55:16;9.4;72.0
77803;DHT22;66993;48.256;16.422;2023-04-25T05:00:16;9.6;72.0
77803;DHT22;66993;48.256;16.422;2023-04-25T05:05:16;9.5;72.0
77803;DHT22;66993;48.256;16.422;2023-04-25T05:10:16;9.4;72.0
77803;DHT22;66993;48.256;16.422;2023-04-25T05:15:16;9.2;72.0
77803;DHT22;66993;48.256;16.422;2023-04-25T05:20:16;9.1;73.0
77803;DHT22;66993;48.256;16.422;2023-04-25T05:25:16;9.0;73.0
77803;DHT22;66993;48.256;16.422;2023-04-25T05:30:16;9.0;74.0
77803;DHT22;66993;48.256;16.422;2023-04-25T05:35:16;9.0;75.0
77803;DHT22;66993;48.256;16.422;2023-04-25T05:40:16;9.0;75.0
77803;DHT22;66993;48.256;16.422;2023-04-25T05:45:16;9.2;74.0
77803;DHT22;66993;48.256;16.422;2023-04-25T05:50:16;9.6;73.0
77803;DHT22;66993;48.256;16.422;2023-04-25T05:55:16;10.0;74.0
77803;DHT22;66993;48.256;16.422;2023-04-25T06:00:16;10.3;73.0
77803;DHT22;66993;48.256;16.422;2023-04-25T06:05:16;10.6;73.0
77803;DHT22;66993;48.256;16.422;2023-04-25T06:10:16;10.6;71.0
77803;DHT22;66993;48.256;16.422;2023-04-25T06:15:16;11.1;70.0
77803;DHT22;66993;48.256;16.422;2023-04-25T06:20:16;11.0;67.0
77803;DHT22;66993;48.256;16.422;2023-04-25T06:25:16;11.1;66.0
77803;DHT22;66993;48.256;16.422;2023-04-25T06:30:16;11.2;66.0
77803;DHT22;66993;48.256;16.422;2023-04-25T06:35:16;11.4;63.0
77803;DHT22;66993;48.256;16.422;2023-04-25T06:40:16;11.9;63.0
77803;DHT22;66993;48.256;16.422;2023-04-25T06:45:16;11.7;61.0
77803;DHT22;66993;48.256;16.422;2023-04-25T06:50:16;11.8;59.0
77803;DHT22;66993;48.256;16.422;2023-04-25T06:55:16;12.1;60.0
77803;DHT22;66993;48.256;16.422;2023-04-25T07:00:16;11.9;59.0
77803;DHT22;66993;48.256;16.422;2023-04-25T07:05:16;12.1;57.0
77803;DHT22;66993;48.256;16.422;2023-04-25T07:10:16;12.0;56.0
77803;DHT22;66993;48.256;16.422;2023-04-25T07:15:16;12.3;56.0
77803;DHT22;66993;48.256;16.422;2023-04-25T07:20:16;12.4;56.0
77803;DHT22;66993;48.256;16.422;2023-04-25T07:25:16;12.3;55.0
77803;DHT22;66993;48.256;16.422;2023-04-25T07:30:16;12.8;53.0
77803;DHT22;66993;48.256;16.422;2023-04-25T07:35:16;12.6;52.0
77803;DHT22;66993;48.256;16.422;2023-04-25T07:40:16;13.1;53.0
77803;DHT22;66993;48.256;16.422;2023-04-25T07:45:16;13.0;50.0
77803;DHT22;66993;48.256;16.422;2023-04-25T07:50:16;13.0;50.0
77803;DHT22;66993;48.256;16.422;2023-04-25T07:55:16;12.9;50.0
77803;DHT22;66993;48.256;16.422;2023-04-25T08:00:16;13.3;48.0
77803;DHT22;66993;48.256;16.422;2023-04-25T08:05:16;13.7;48.0
77803;DHT22;66993;48.256;16.422;2023-04-25T08:10:16;13.7;47.0
77803;DHT22;66993;48.256;16.422;2023-04-25T08:15:16;13.7;46.0
77803;DHT22;66993;48.256;16.422;2023-04-25T08:20:16;13.6;46.0
77803;DHT22;66993;48.256;16.422;2023-04-25T08:25:16;13.6;47.0
77803;DHT22;66993;48.256;16.422;2023-04-25T08:30:16;13.8;47.0
77803;DHT22;66993;48.256;16.422;2023-04-25T08:35:16;14.0;48.0
77803;DHT22;66993;48.256;16.422;2023-04-25T08:40:16;14.3;49.0
77803;DHT22;66993;48.256;16.422;2023-04-25T08:45:16;14.8;48.0
77803;DHT22;66993;48.256;16.422;2023-04-25T08:50:16;14.3;48.0
77803;DHT22;66993;48.256;16.422;2023-04-25T08:55:16;14.8;48.0
77803;DHT22;66993;48.256;16.422;2023-04-25T09:00:16;14.6;49.0
77803;DHT22;66993;48.256;16.422;2023-04-25T09:05:16;15.1;51.0
77803;DHT22;66993;48.256;16.422;2023-04-25T09:10:16;14.6;51.0
77803;DHT22;66993;48.256;16.422;2023-04-25T09:15:16;14.6;52.0
77803;DHT22;66993;48.256;16.422;2023-04-25T09:20:16;15.1;52.0
77803;DHT22;66993;48.256;16.422;2023-04-25T09:25:16;15.6;51.0
77803;DHT22;66993;48.256;16.422;2023-04-25T09:30:16;15.3;51.0
77803;DHT22;66993;48.256;16.422;2023-04-25T09:35:23;15.3;51.0
77803;DHT22;66993;48.256;16.422;2023-04-25T09:40:16;14.8;50.0
77803;DHT22;66993;48.256;16.422;2023-04-25T09:45:16;15.0;51.0
77803;DHT22;66993;48.256;16.422;2023-04-25T09:50:16;14.9;51.0
77803;DHT22;66993;48.256;16.422;2023-04-25T09:55:16;14.6;52.0
77803;DHT22;66993;48.256;16.422;2023-04-25T10:00:16;13.6;53.0
77803;DHT22;66993;48.256;16.422;2023-04-25T10:05:16;9.6;58.0
77803;DHT22;66993;48.256;16.422;2023-04-25T10:10:16;7.6;74.0
77803;DHT22;66993;48.256;16.422;2023-04-25T10:15:16;8.1;80.0
77803;DHT22;66993;48.256;16.422;2023-04-25T10:20:16;8.8;83.0
77803;DHT22;66993;48.256;16.422;2023-04-25T10:25:16;9.3;86.0
77803;DHT22;66993;48.256;16.422;2023-04-25T10:30:16;10.8;88.0
77803;DHT22;66993;48.256;16.422;2023-04-25T10:35:16;11.8;88.0
77803;DHT22;66993;48.256;16.422;2023-04-25T10:40:16;12.3;81.0
77803;DHT22;66993;48.256;16.422;2023-04-25T10:45:16;15.8;76.0
77803;DHT22;66993;48.256;16.422;2023-04-25T10:50:16;16.3;72.0
77803;DHT22;66993;48.256;16.422;2023-04-25T10:55:16;17.1;65.0
77803;DHT22;66993;48.256;16.422;2023-04-25T11:00:16;16.1;69.0
77803;DHT22;66993;48.256;16.422;2023-04-25T11:05:20;16.1;70.0
77803;DHT22;66993;48.256;16.422;2023-04-25T11:10:16;15.1;63.0
77803;DHT22;66993;48.256;16.422;2023-04-25T11:15:16;15.1;72.0
77803;DHT22;66993;48.256;16.422;2023-04-25T11:20:16;16.1;66.0
77803;DHT22;66993;48.256;16.422;2023-04-25T11:25:16;15.6;69.0
77803;DHT22;66993;48.256;16.422;2023-04-25T11:30:16;14.9;74.0
77803;DHT22;66993;48.256;16.422;2023-04-25T11:35:16;14.4;69.0
77803;DHT22;66993;48.256;16.422;2023-04-25T11:40:16;14.0;70.0
77803;DHT22;66993;48.256;16.422;2023-04-25T11:45:16;13.8;71.0
77803;DHT22;66993;48.256;16.422;2023-04-25T11:50:16;14.1;68.0
77803;DHT22;66993;48.256;16.422;2023-04-25T11:55:17;13.8;63.0
77803;DHT22;66993;48.256;16.422;2023-04-25T12:00:16;13.3;62.0
77803;DHT22;66993;48.256;16.422;2023-04-25T12:05:16;13.6;62.0
77803;DHT22;66993;48.256;16.422;2023-04-25T12:10:16;13.1;61.0
77803;DHT22;66993;48.256;16.422;2023-04-25T12:15:16;13.3;61.0
77803;DHT22;66993;48.256;16.422;2023-04-25T12:20:16;13.8;61.0
77803;DHT22;66993;48.256;16.422;2023-04-25T12:25:33;15.3;61.0
77803;DHT22;66993;48.256;16.422;2023-04-25T12:30:16;15.5;61.0
77803;DHT22;66993;48.256;16.422;2023-04-25T12:35:16;15.4;58.0
77803;DHT22;66993;48.256;16.422;2023-04-25T12:40:16;14.9;58.0
77803;DHT22;66993;48.256;16.422;2023-04-25T12:45:16;15.9;58.0
77803;DHT22;66993;48.256;16.422;2023-04-25T12:50:16;15.4;56.0
77803;DHT22;66993;48.256;16.422;2023-04-25T12:55:16;15.4;55.0
77803;DHT22;66993;48.256;16.422;2023-04-25T13:00:16;15.9;57.0
77803;DHT22;66993;48.256;16.422;2023-04-25T13:05:16;15.9;57.0
77803;DHT22;66993;48.256;16.422;2023-04-25T13:10:16;16.2;57.0
77803;DHT22;66993;48.256;16.422;2023-04-25T13:15:16;16.2;57.0
77803;DHT22;66993;48.256;16.422;2023-04-25T13:20:16;15.7;57.0
77803;DHT22;66993;48.256;16.422;2023-04-25T13:25:16;16.2;57.0
77803;DHT22;66993;48.256;16.422;2023-04-25T13:30:16;16.2;54.0
77803;DHT22;66993;48.256;16.422;2023-04-25T13:35:16;17.7;54.0
77803;DHT22;66993;48.256;16.422;2023-04-25T13:40:16;16.2;50.0
77803;DHT22;66993;48.256;16.422;2023-04-25T13:45:16;16.7;52.0
77803;DHT22;66993;48.256;16.422;2023-04-25T13:50:16;16.7;50.0
77803;DHT22;66993;48.256;16.422;2023-04-25T13:55:16;18.2;53.0
77803;DHT22;66993;48.256;16.422;2023-04-25T14:00:16;17.7;49.0
77803;DHT22;66993;48.256;16.422;2023-04-25T14:05:16;16.7;47.0
77803;DHT22;66993;48.256;16.422;2023-04-25T14:10:16;16.2;50.0
77803;DHT22;66993;48.256;16.422;2023-04-25T14:15:16;16.1;52.0
77803;DHT22;66993;48.256;16.422;2023-04-25T14:20:16;13.6;55.0
77803;DHT22;66993;48.256;16.422;2023-04-25T14:25:16;12.6;61.0
77803;DHT22;66993;48.256;16.422;2023-04-25T14:30:16;13.1;65.0
77803;DHT22;66993;48.256;16.422;2023-04-25T14:35:16;13.1;66.0
77803;DHT22;66993;48.256;16.422;2023-04-25T14:40:16;13.6;68.0
77803;DHT22;66993;48.256;16.422;2023-04-25T14:45:16;13.4;65.0
77803;DHT22;66993;48.256;16.422;2023-04-25T14:50:16;13.5;62.0
77803;DHT22;66993;48.256;16.422;2023-04-25T14:55:16;13.5;61.0
77803;DHT22;66993;48.256;16.422;2023-04-25T15:00:16;13.5;62.0
77803;DHT22;66993;48.256;16.422;2023-04-25T15:05:16;13.3;60.0
77803;DHT22;66993;48.256;16.422;2023-04-25T15:10:16;13.8;61.0
77803;DHT22;66993;48.256;16.422;2023-04-25T15:15:16;13.5;62.0
77803;DHT22;66993;48.256;16.422;2023-04-25T15:20:16;14.0;62.0
77803;DHT22;66993;48.256;16.422;2023-04-25T15:25:16;14.3;62.0
77803;DHT22;66993;48.256;16.422;2023-04-25T15:30:16;14.1;61.0
77803;DHT22;66993;48.256;16.422;2023-04-25T15:35:16;13.9;60.0
77803;DHT22;66993;48.256;16.422;2023-04-25T15:40:16;13.9;60.0
77803;DHT22;66993;48.256;16.422;2023-04-25T15:45:16;13.8;60.0
77803;DHT22;66993;48.256;16.422;2023-04-25T15:50:16;13.3;61.0
77803;DHT22;66993;48.256;16.422;2023-04-25T15:55:16;12.9;62.0
77803;DHT22;66993;48.256;16.422;2023-04-25T16:00:16;12.7;62.0
77803;DHT22;66993;48.256;16.422;2023-04-25T16:05:16;12.6;62.0
77803;DHT22;66993;48.256;16.422;2023-04-25T16:10:17;12.1;63.0
77803;DHT22;66993;48.256;16.422;2023-04-25T16:15:16;12.2;63.0
77803;DHT22;66993;48.256;16.422;2023-04-25T16:20:16;12.4;63.0
77803;DHT22;66993;48.256;16.422;2023-04-25T16:25:16;12.1;64.0
77803;DHT22;66993;48.256;16.422;2023-04-25T16:30:16;11.9;65.0
77803;DHT22;66993;48.256;16.422;2023-04-25T16:35:16;12.2;65.0
77803;DHT22;66993;48.256;16.422;2023-04-25T16:40:16;11.7;65.0
77803;DHT22;66993;48.256;16.422;2023-04-25T16:45:16;11.6;65.0
77803;DHT22;66993;48.256;16.422;2023-04-25T16:50:17;11.6;66.0
77803;DHT22;66993;48.256;16.422;2023-04-25T16:55:16;11.6;66.0
77803;DHT22;66993;48.256;16.422;2023-04-25T17:00:16;11.4;67.0
77803;DHT22;66993;48.256;16.422;2023-04-25T17:05:16;11.4;67.0
77803;DHT22;66993;48.256;16.422;2023-04-25T17:10:16;11.4;68.0
77803;DHT22;66993;48.256;16.422;2023-04-25T17:15:16;11.5;69.0
77803;DHT22;66993;48.256;16.422;2023-04-25T17:20:16;11.5;69.0
77803;DHT22;66993;48.256;16.422;2023-04-25T17:25:16;11.5;70.0
77803;DHT22;66993;48.256;16.422;2023-04-25T17:30:16;11.7;70.0
77803;DHT22;66993;48.256;16.422;2023-04-25T17:35:16;11.7;69.0
77803;DHT22;66993;48.256;16.422;2023-04-25T17:40:16;11.6;69.0
77803;DHT22;66993;48.256;16.422;2023-04-25T17:45:16;11.4;69.0
77803;DHT22;66993;48.256;16.422;2023-04-25T17:50:16;11.1;70.0
77803;DHT22;66993;48.256;16.422;2023-04-25T17:55:16;11.1;70.0
77803;DHT22;66993;48.256;16.422;2023-04-25T18:00:16;11.0;71.0
77803;DHT22;66993;48.256;16.422;2023-04-25T18:05:16;10.9;71.0
77803;DHT22;66993;48.256;16.422;2023-04-25T18:10:16;10.8;72.0
77803;DHT22;66993;48.256;16.422;2023-04-25T18:15:16;10.5;72.0
77803;DHT22;66993;48.256;16.422;2023-04-25T18:20:16;10.4;73.0
77803;DHT22;66993;48.256;16.422;2023-04-25T18:25:16;10.4;73.0
77803;DHT22;66993;48.256;16.422;2023-04-25T18:30:16;10.2;73.0
77803;DHT22;66993;48.256;16.422;2023-04-25T18:35:16;10.1;73.0
77803;DHT22;66993;48.256;16.422;2023-04-25T18:40:16;9.9;74.0
77803;DHT22;66993;48.256;16.422;2023-04-25T18:45:16;9.7;74.0
77803;DHT22;66993;48.256;16.422;2023-04-25T18:50:16;9.5;74.0
77803;DHT22;66993;48.256;16.422;2023-04-25T18:55:16;9.6;75.0
77803;DHT22;66993;48.256;16.422;2023-04-25T19:00:16;9.5;75.0
77803;DHT22;66993;48.256;16.422;2023-04-25T19:05:16;9.8;75.0
77803;DHT22;66993;48.256;16.422;2023-04-25T19:10:16;9.6;75.0
77803;DHT22;66993;48.256;16.422;2023-04-25T19:15:16;9.8;75.0
77803;DHT22;66993;48.256;16.422;2023-04-25T19:20:16;9.8;75.0
77803;DHT22;66993;48.256;16.422;2023-04-25T19:25:16;9.9;75.0
77803;DHT22;66993;48.256;16.422;2023-04-25T19:30:16;9.7;75.0
77803;DHT22;66993;48.256;16.422;2023-04-25T19:35:16;9.6;75.0
77803;DHT22;66993;48.256;16.422;2023-04-25T19:40:16;9.8;75.0
77803;DHT22;66993;48.256;16.422;2023-04-25T19:45:16;9.8;75.0
77803;DHT22;66993;48.256;16.422;2023-04-25T19:50:16;9.7;75.0
77803;DHT22;66993;48.256;16.422;2023-04-25T19:55:16;9.5;75.0
77803;DHT22;66993;48.256;16.422;2023-04-25T20:00:16;9.6;76.0
77803;DHT22;66993;48.256;16.422;2023-04-25T20:05:16;9.7;76.0
77803;DHT22;66993;48.256;16.422;2023-04-25T20:10:16;9.5;76.0
77803;DHT22;66993;48.256;16.422;2023-04-25T20:15:16;9.6;76.0
77803;DHT22;66993;48.256;16.422;2023-04-25T20:20:16;9.6;76.0
77803;DHT22;66993;48.256;16.422;2023-04-25T20:25:16;9.6;77.0
77803;DHT22;66993;48.256;16.422;2023-04-25T20:30:16;9.6;76.0
77803;DHT22;66993;48.256;16.422;2023-04-25T20:35:16;9.5;77.0
77803;DHT22;66993;48.256;16.422;2023-04-25T20:40:16;9.3;77.0
77803;DHT22;66993;48.256;16.422;2023-04-25T20:45:16;9.3;77.0
77803;DHT22;66993;48.256;16.422;2023-04-25T20:50:16;9.2;77.0
77803;DHT22;66993;48.256;16.422;2023-04-25T20:55:16;9.2;77.0
77803;DHT22;66993;48.256;16.422;2023-04-25T21:00:16;9.2;77.0
77803;DHT22;66993;48.256;16.422;2023-04-25T21:05:16;9.3;77.0
77803;DHT22;66993;48.256;16.422;2023-04-25T21:10:16;9.3;77.0
77803;DHT22;66993;48.256;16.422;2023-04-25T21:15:16;9.2;77.0
77803;DHT22;66993;48.256;16.422;2023-04-25T21:20:16;9.2;77.0
77803;DHT22;66993;48.256;16.422;2023-04-25T21:25:16;9.0;78.0
77803;DHT22;66993;48.256;16.422;2023-04-25T21:30:16;8.9;79.0
77803;DHT22;66993;48.256;16.422;2023-04-25T21:35:16;8.8;79.0
77803;DHT22;66993;48.256;16.422;2023-04-25T21:40:16;8.9;80.0
77803;DHT22;66993;48.256;16.422;2023-04-25T21:45:16;8.9;80.0
77803;DHT22;66993;48.256;16.422;2023-04-25T21:50:16;8.8;80.0
77803;DHT22;66993;48.256;16.422;2023-04-25T21:55:16;8.5;80.0
77803;DHT22;66993;48.256;16.422;2023-04-25T22:00:16;8.6;80.0
77803;DHT22;66993;48.256;16.422;2023-04-25T22:05:16;8.6;81.0
77803;DHT22;66993;48.256;16.422;2023-04-25T22:10:16;8.7;81.0
77803;DHT22;66993;48.256;16.422;2023-04-25T22:15:16;8.8;80.0
77803;DHT22;66993;48.256;16.422;2023-04-25T22:20:16;8.8;80.0
77803;DHT22;66993;48.256;16.422;2023-04-25T22:25:16;8.8;80.0
77803;DHT22;66993;48.256;16.422;2023-04-25T22:30:16;8.7;79.0
77803;DHT22;66993;48.256;16.422;2023-04-25T22:35:16;8.7;79.0
77803;DHT22;66993;48.256;16.422;2023-04-25T22:40:16;8.9;78.0
77803;DHT22;66993;48.256;16.422;2023-04-25T22:45:16;8.9;78.0
77803;DHT22;66993;48.256;16.422;2023-04-25T22:50:16;8.9;77.0
77803;DHT22;66993;48.256;16.422;2023-04-25T22:55:16;8.9;77.0
77803;DHT22;66993;48.256;16.422;2023-04-25T23:00:16;8.9;76.0
77803;DHT22;66993;48.256;16.422;2023-04-25T23:05:26;8.9;76.0
77803;DHT22;66993;48.256;16.422;2023-04-25T23:10:20;8.9;76.0
77803;DHT22;66993;48.256;16.422;2023-04-25T23:15:26;8.9;75.0
77803;DHT22;66993;48.256;16.422;2023-04-25T23:20:16;8.9;75.0
77803;DHT22;66993;48.256;16.422;2023-04-25T23:25:16;8.9;75.0
77803;DHT22;66993;48.256;16.422;2023-04-25T23:30:16;8.9;75.0
77803;DHT22;66993;48.256;16.422;2023-04-25T23:35:16;8.9;74.0
77803;DHT22;66993;48.256;16.422;2023-04-25T23:40:16;8.9;74.0
77803;DHT22;66993;48.256;16.422;2023-04-25T23:45:16;8.8;74.0
77803;DHT22;66993;48.256;16.422;2023-04-25T23:50:16;8.7;74.0
77803;DHT22;66993;48.256;16.422;2023-04-25T23:55:16;8.6;74.0
